sensor_id;sensor_type;location;lat;lon;timestamp;P1;P2;P0
21358;PMS7003;13506;50.852;20.632;2023-01-13T00:01:06;18.00;16.20;8.60
21358;PMS7003;13506;50.852;20.632;2023-01-13T00:03:34;20.80;18.80;10.80
21358;PMS7003;13506;50.852;20.632;2023-01-13T00:06:03;16.75;15.00;8.50
21358;PMS7003;13506;50.852;20.632;2023-01-13T00:08:32;24.80;20.80;10.20
21358;PMS7003;13506;50.852;20.632;2023-01-13T00:11:00;18.75;17.00;9.00
21358;PMS7003;13506;50.852;20.632;2023-01-13T00:13:28;16.25;15.00;9.00
21358;PMS7003;13506;50.852;20.632;2023-01-13T00:15:58;15.75;15.75;7.75
21358;PMS7003;13506;50.852;20.632;2023-01-13T00:18:30;17.75;14.25;8.00
21358;PMS7003;13506;50.852;20.632;2023-01-13T00:20:59;19.25;17.25;9.00
21358;PMS7003;13506;50.852;20.632;2023-01-13T00:23:28;20.50;17.50;10.00
21358;PMS7003;13506;50.852;20.632;2023-01-13T00:25:58;25.50;21.75;10.75
21358;PMS7003;13506;50.852;20.632;2023-01-13T00:28:27;17.25;16.75;9.25
21358;PMS7003;13506;50.852;20.632;2023-01-13T00:30:55;27.50;21.25;9.50
21358;PMS7003;13506;50.852;20.632;2023-01-13T00:33:31;20.25;16.25;9.00
21358;PMS7003;13506;50.852;20.632;2023-01-13T00:35:59;25.50;18.75;10.00
21358;PMS7003;13506;50.852;20.632;2023-01-13T00:38:29;19.00;15.75;7.00
21358;PMS7003;13506;50.852;20.632;2023-01-13T00:40:59;17.25;16.00;7.00
21358;PMS7003;13506;50.852;20.632;2023-01-13T00:43:31;16.25;14.00;6.50
21358;PMS7003;13506;50.852;20.632;2023-01-13T00:45:59;16.50;15.00;7.00
21358;PMS7003;13506;50.852;20.632;2023-01-13T00:48:28;22.60;19.60;12.60
21358;PMS7003;13506;50.852;20.632;2023-01-13T00:50:58;12.00;11.00;7.00
21358;PMS7003;13506;50.852;20.632;2023-01-13T00:53:29;18.40;15.00;7.00
21358;PMS7003;13506;50.852;20.632;2023-01-13T00:56:06;17.25;14.25;7.00
21358;PMS7003;13506;50.852;20.632;2023-01-13T00:58:39;16.00;13.75;7.00
21358;PMS7003;13506;50.852;20.632;2023-01-13T01:01:10;14.50;14.00;7.50
21358;PMS7003;13506;50.852;20.632;2023-01-13T01:03:41;15.50;13.00;7.75
21358;PMS7003;13506;50.852;20.632;2023-01-13T01:06:10;20.00;17.60;10.00
21358;PMS7003;13506;50.852;20.632;2023-01-13T01:08:40;15.50;14.75;6.75
21358;PMS7003;13506;50.852;20.632;2023-01-13T01:11:10;17.25;16.50;10.00
21358;PMS7003;13506;50.852;20.632;2023-01-13T01:13:42;15.25;14.75;8.50
21358;PMS7003;13506;50.852;20.632;2023-01-13T01:16:11;22.00;17.00;7.75
21358;PMS7003;13506;50.852;20.632;2023-01-13T01:18:43;17.75;15.00;9.00
21358;PMS7003;13506;50.852;20.632;2023-01-13T01:21:13;14.25;11.00;6.25
21358;PMS7003;13506;50.852;20.632;2023-01-13T01:23:41;15.00;12.50;7.25
21358;PMS7003;13506;50.852;20.632;2023-01-13T01:26:09;17.00;13.00;7.00
21358;PMS7003;13506;50.852;20.632;2023-01-13T01:28:40;16.00;15.60;9.80
21358;PMS7003;13506;50.852;20.632;2023-01-13T01:31:09;21.50;17.25;9.25
21358;PMS7003;13506;50.852;20.632;2023-01-13T01:33:39;17.75;15.50;7.50
21358;PMS7003;13506;50.852;20.632;2023-01-13T01:36:10;22.50;20.25;10.00
21358;PMS7003;13506;50.852;20.632;2023-01-13T01:38:39;22.75;18.75;9.50
21358;PMS7003;13506;50.852;20.632;2023-01-13T01:41:08;27.20;24.20;11.20
21358;PMS7003;13506;50.852;20.632;2023-01-13T01:43:47;29.40;25.00;15.20
21358;PMS7003;13506;50.852;20.632;2023-01-13T01:46:32;23.50;19.50;10.75
21358;PMS7003;13506;50.852;20.632;2023-01-13T01:49:07;26.00;21.00;12.80
21358;PMS7003;13506;50.852;20.632;2023-01-13T01:51:42;14.75;14.25;7.50
21358;PMS7003;13506;50.852;20.632;2023-01-13T01:54:18;19.75;17.75;9.00
21358;PMS7003;13506;50.852;20.632;2023-01-13T01:56:51;20.50;17.75;9.50
21358;PMS7003;13506;50.852;20.632;2023-01-13T01:59:19;13.25;13.25;7.25
21358;PMS7003;13506;50.852;20.632;2023-01-13T02:01:47;19.50;15.50;9.25
21358;PMS7003;13506;50.852;20.632;2023-01-13T02:04:18;12.50;11.25;6.00
21358;PMS7003;13506;50.852;20.632;2023-01-13T02:06:53;13.75;13.75;6.00
21358;PMS7003;13506;50.852;20.632;2023-01-13T02:09:23;19.00;14.50;8.75
21358;PMS7003;13506;50.852;20.632;2023-01-13T02:11:52;12.50;12.00;6.25
21358;PMS7003;13506;50.852;20.632;2023-01-13T02:14:37;15.75;15.75;8.25
21358;PMS7003;13506;50.852;20.632;2023-01-13T02:17:09;14.00;11.50;7.00
21358;PMS7003;13506;50.852;20.632;2023-01-13T02:23:32;18.00;16.00;8.50
21358;PMS7003;13506;50.852;20.632;2023-01-13T02:27:14;14.20;11.40;6.20
21358;PMS7003;13506;50.852;20.632;2023-01-13T02:30:17;14.50;12.50;7.00
21358;PMS7003;13506;50.852;20.632;2023-01-13T02:33:17;14.75;10.50;6.25
21358;PMS7003;13506;50.852;20.632;2023-01-13T02:36:00;13.50;9.75;4.50
21358;PMS7003;13506;50.852;20.632;2023-01-13T02:38:38;15.50;14.25;5.00
21358;PMS7003;13506;50.852;20.632;2023-01-13T02:41:20;17.75;16.50;6.75
21358;PMS7003;13506;50.852;20.632;2023-01-13T02:44:12;13.00;11.00;6.25
21358;PMS7003;13506;50.852;20.632;2023-01-13T02:46:50;14.75;11.25;5.00
21358;PMS7003;13506;50.852;20.632;2023-01-13T02:49:26;13.00;10.75;6.00
21358;PMS7003;13506;50.852;20.632;2023-01-13T02:52:01;11.25;10.25;4.00
21358;PMS7003;13506;50.852;20.632;2023-01-13T02:54:36;11.00;9.00;4.00
21358;PMS7003;13506;50.852;20.632;2023-01-13T02:57:09;11.00;8.75;5.00
21358;PMS7003;13506;50.852;20.632;2023-01-13T02:59:38;10.75;10.75;4.50
21358;PMS7003;13506;50.852;20.632;2023-01-13T03:02:11;11.25;10.75;6.00
21358;PMS7003;13506;50.852;20.632;2023-01-13T03:04:46;12.00;10.00;6.00
21358;PMS7003;13506;50.852;20.632;2023-01-13T03:07:29;12.00;11.50;5.50
21358;PMS7003;13506;50.852;20.632;2023-01-13T03:10:45;13.00;12.00;6.75
21358;PMS7003;13506;50.852;20.632;2023-01-13T03:16:28;10.00;9.00;4.00
21358;PMS7003;13506;50.852;20.632;2023-01-13T03:21:58;11.50;9.50;4.00
21358;PMS7003;13506;50.852;20.632;2023-01-13T03:24:41;6.50;6.50;3.25
21358;PMS7003;13506;50.852;20.632;2023-01-13T03:27:14;14.00;10.75;4.50
21358;PMS7003;13506;50.852;20.632;2023-01-13T03:29:51;11.00;9.25;4.00
21358;PMS7003;13506;50.852;20.632;2023-01-13T03:32:24;9.50;9.50;4.50
21358;PMS7003;13506;50.852;20.632;2023-01-13T03:34:58;9.00;9.00;3.75
21358;PMS7003;13506;50.852;20.632;2023-01-13T03:37:33;12.75;9.00;4.00
21358;PMS7003;13506;50.852;20.632;2023-01-13T03:40:06;10.00;10.00;4.00
21358;PMS7003;13506;50.852;20.632;2023-01-13T03:42:40;10.25;10.25;4.00
21358;PMS7003;13506;50.852;20.632;2023-01-13T03:45:32;8.75;8.75;3.50
21358;PMS7003;13506;50.852;20.632;2023-01-13T03:48:05;9.00;9.00;3.75
21358;PMS7003;13506;50.852;20.632;2023-01-13T03:50:39;13.50;12.75;5.00
21358;PMS7003;13506;50.852;20.632;2023-01-13T03:53:14;13.75;12.00;7.25
21358;PMS7003;13506;50.852;20.632;2023-01-13T03:55:49;9.75;9.75;3.25
21358;PMS7003;13506;50.852;20.632;2023-01-13T03:58:24;15.75;11.75;6.00
21358;PMS7003;13506;50.852;20.632;2023-01-13T04:01:00;10.25;9.75;4.50
21358;PMS7003;13506;50.852;20.632;2023-01-13T04:03:37;10.25;9.75;3.25
21358;PMS7003;13506;50.852;20.632;2023-01-13T04:06:13;9.25;9.25;5.50
21358;PMS7003;13506;50.852;20.632;2023-01-13T04:08:50;9.25;9.25;4.00
21358;PMS7003;13506;50.852;20.632;2023-01-13T04:11:24;11.25;11.25;4.00
21358;PMS7003;13506;50.852;20.632;2023-01-13T04:13:58;10.25;8.25;3.25
21358;PMS7003;13506;50.852;20.632;2023-01-13T04:16:29;9.00;8.00;4.00
21358;PMS7003;13506;50.852;20.632;2023-01-13T04:18:58;12.25;9.25;4.00
21358;PMS7003;13506;50.852;20.632;2023-01-13T04:21:27;11.50;8.50;3.25
21358;PMS7003;13506;50.852;20.632;2023-01-13T04:23:56;9.50;9.00;3.75
21358;PMS7003;13506;50.852;20.632;2023-01-13T04:26:24;11.50;8.00;4.00
21358;PMS7003;13506;50.852;20.632;2023-01-13T04:28:52;7.50;6.25;3.00
21358;PMS7003;13506;50.852;20.632;2023-01-13T04:31:20;12.00;11.50;4.50
21358;PMS7003;13506;50.852;20.632;2023-01-13T04:33:48;9.00;9.00;4.50
21358;PMS7003;13506;50.852;20.632;2023-01-13T04:36:16;8.75;8.75;3.75
21358;PMS7003;13506;50.852;20.632;2023-01-13T04:38:51;10.25;8.50;3.75
21358;PMS7003;13506;50.852;20.632;2023-01-13T04:41:19;6.25;5.50;3.00
21358;PMS7003;13506;50.852;20.632;2023-01-13T04:43:48;14.25;14.25;6.00
21358;PMS7003;13506;50.852;20.632;2023-01-13T04:46:15;6.00;6.00;3.00
21358;PMS7003;13506;50.852;20.632;2023-01-13T04:48:43;9.50;8.00;4.00
21358;PMS7003;13506;50.852;20.632;2023-01-13T04:51:11;10.50;10.50;5.00
21358;PMS7003;13506;50.852;20.632;2023-01-13T04:53:39;12.00;11.50;3.75
21358;PMS7003;13506;50.852;20.632;2023-01-13T04:56:08;11.25;9.25;3.75
21358;PMS7003;13506;50.852;20.632;2023-01-13T04:58:36;9.00;8.50;4.00
21358;PMS7003;13506;50.852;20.632;2023-01-13T05:01:03;11.50;8.50;4.00
21358;PMS7003;13506;50.852;20.632;2023-01-13T05:03:31;10.00;9.00;4.00
21358;PMS7003;13506;50.852;20.632;2023-01-13T05:05:59;9.25;7.25;1.50
21358;PMS7003;13506;50.852;20.632;2023-01-13T05:08:27;9.00;7.50;3.00
21358;PMS7003;13506;50.852;20.632;2023-01-13T05:10:58;10.75;9.00;3.75
21358;PMS7003;13506;50.852;20.632;2023-01-13T05:13:27;7.00;7.00;4.00
21358;PMS7003;13506;50.852;20.632;2023-01-13T05:16:21;9.75;9.75;4.00
21358;PMS7003;13506;50.852;20.632;2023-01-13T05:19:06;7.50;7.00;3.00
21358;PMS7003;13506;50.852;20.632;2023-01-13T05:21:34;12.25;9.25;3.75
21358;PMS7003;13506;50.852;20.632;2023-01-13T05:24:19;12.50;11.25;5.75
21358;PMS7003;13506;50.852;20.632;2023-01-13T05:27:05;6.75;6.00;3.25
21358;PMS7003;13506;50.852;20.632;2023-01-13T05:29:34;13.00;9.50;4.00
21358;PMS7003;13506;50.852;20.632;2023-01-13T05:32:02;11.25;8.00;3.50
21358;PMS7003;13506;50.852;20.632;2023-01-13T05:34:33;12.00;10.00;4.50
21358;PMS7003;13506;50.852;20.632;2023-01-13T05:37:01;10.00;9.25;3.00
21358;PMS7003;13506;50.852;20.632;2023-01-13T05:39:30;8.50;8.50;3.25
21358;PMS7003;13506;50.852;20.632;2023-01-13T05:42:18;12.75;11.00;6.00
21358;PMS7003;13506;50.852;20.632;2023-01-13T05:45:06;8.00;8.00;3.00
21358;PMS7003;13506;50.852;20.632;2023-01-13T05:47:35;11.00;10.00;4.50
21358;PMS7003;13506;50.852;20.632;2023-01-13T05:50:03;10.00;8.50;4.00
21358;PMS7003;13506;50.852;20.632;2023-01-13T05:52:32;9.75;8.25;4.50
21358;PMS7003;13506;50.852;20.632;2023-01-13T05:55:00;8.25;8.00;3.50
21358;PMS7003;13506;50.852;20.632;2023-01-13T05:57:28;9.75;9.25;4.50
21358;PMS7003;13506;50.852;20.632;2023-01-13T05:59:56;12.50;11.50;4.50
21358;PMS7003;13506;50.852;20.632;2023-01-13T06:02:25;7.00;7.00;3.00
21358;PMS7003;13506;50.852;20.632;2023-01-13T06:04:53;12.75;11.25;4.50
21358;PMS7003;13506;50.852;20.632;2023-01-13T06:07:21;10.00;9.75;6.00
21358;PMS7003;13506;50.852;20.632;2023-01-13T06:09:49;11.25;10.50;5.50
21358;PMS7003;13506;50.852;20.632;2023-01-13T06:12:16;9.75;9.75;5.50
21358;PMS7003;13506;50.852;20.632;2023-01-13T06:14:44;10.50;9.75;3.00
21358;PMS7003;13506;50.852;20.632;2023-01-13T06:17:13;10.50;8.75;4.00
21358;PMS7003;13506;50.852;20.632;2023-01-13T06:19:43;11.50;8.00;4.00
21358;PMS7003;13506;50.852;20.632;2023-01-13T06:22:12;6.75;6.75;3.00
21358;PMS7003;13506;50.852;20.632;2023-01-13T06:24:43;14.00;10.50;6.00
21358;PMS7003;13506;50.852;20.632;2023-01-13T06:27:11;6.50;6.50;1.50
21358;PMS7003;13506;50.852;20.632;2023-01-13T06:29:40;8.50;7.00;3.75
21358;PMS7003;13506;50.852;20.632;2023-01-13T06:32:08;9.75;9.00;4.00
21358;PMS7003;13506;50.852;20.632;2023-01-13T06:34:43;13.25;10.25;4.00
21358;PMS7003;13506;50.852;20.632;2023-01-13T06:37:15;8.00;8.00;4.00
21358;PMS7003;13506;50.852;20.632;2023-01-13T06:39:50;10.25;9.75;4.00
21358;PMS7003;13506;50.852;20.632;2023-01-13T06:42:21;13.50;9.00;4.00
21358;PMS7003;13506;50.852;20.632;2023-01-13T06:45:08;9.50;9.50;4.00
21358;PMS7003;13506;50.852;20.632;2023-01-13T06:47:36;7.00;6.25;2.50
21358;PMS7003;13506;50.852;20.632;2023-01-13T06:50:06;7.00;7.00;3.00
21358;PMS7003;13506;50.852;20.632;2023-01-13T06:52:36;11.50;8.00;4.00
21358;PMS7003;13506;50.852;20.632;2023-01-13T06:55:04;8.75;8.75;3.75
21358;PMS7003;13506;50.852;20.632;2023-01-13T06:57:33;14.00;12.75;6.00
21358;PMS7003;13506;50.852;20.632;2023-01-13T07:00:01;14.00;9.75;4.00
21358;PMS7003;13506;50.852;20.632;2023-01-13T07:02:29;10.00;8.00;3.00
21358;PMS7003;13506;50.852;20.632;2023-01-13T07:04:58;9.00;6.75;3.00
21358;PMS7003;13506;50.852;20.632;2023-01-13T07:07:27;10.25;9.75;4.00
21358;PMS7003;13506;50.852;20.632;2023-01-13T07:09:55;12.00;11.00;5.00
21358;PMS7003;13506;50.852;20.632;2023-01-13T07:12:22;10.25;10.25;4.50
21358;PMS7003;13506;50.852;20.632;2023-01-13T07:14:51;9.00;9.00;3.25
21358;PMS7003;13506;50.852;20.632;2023-01-13T07:17:36;12.25;12.25;5.00
21358;PMS7003;13506;50.852;20.632;2023-01-13T07:20:05;7.00;7.00;4.00
21358;PMS7003;13506;50.852;20.632;2023-01-13T07:22:35;13.50;10.00;6.00
21358;PMS7003;13506;50.852;20.632;2023-01-13T07:25:03;10.00;10.00;4.00
21358;PMS7003;13506;50.852;20.632;2023-01-13T07:27:32;11.50;10.00;5.00
21358;PMS7003;13506;50.852;20.632;2023-01-13T07:30:02;8.75;8.50;4.00
21358;PMS7003;13506;50.852;20.632;2023-01-13T07:32:31;9.25;9.25;5.50
21358;PMS7003;13506;50.852;20.632;2023-01-13T07:34:59;13.00;10.00;4.00
21358;PMS7003;13506;50.852;20.632;2023-01-13T07:37:31;10.00;10.00;5.00
21358;PMS7003;13506;50.852;20.632;2023-01-13T07:40:01;11.50;9.00;4.00
21358;PMS7003;13506;50.852;20.632;2023-01-13T07:42:29;12.00;10.00;6.00
21358;PMS7003;13506;50.852;20.632;2023-01-13T07:45:14;16.75;12.75;6.00
21358;PMS7003;13506;50.852;20.632;2023-01-13T07:47:42;10.25;8.50;3.50
21358;PMS7003;13506;50.852;20.632;2023-01-13T07:50:10;11.75;11.75;5.50
21358;PMS7003;13506;50.852;20.632;2023-01-13T07:52:38;12.00;11.50;6.00
21358;PMS7003;13506;50.852;20.632;2023-01-13T07:55:08;9.00;9.00;3.75
21358;PMS7003;13506;50.852;20.632;2023-01-13T07:57:36;9.00;9.00;3.00
21358;PMS7003;13506;50.852;20.632;2023-01-13T08:00:04;10.50;8.50;3.75
21358;PMS7003;13506;50.852;20.632;2023-01-13T08:02:34;8.50;8.50;4.00
21358;PMS7003;13506;50.852;20.632;2023-01-13T08:05:02;10.75;9.25;5.50
21358;PMS7003;13506;50.852;20.632;2023-01-13T08:07:30;16.25;13.50;6.00
21358;PMS7003;13506;50.852;20.632;2023-01-13T08:09:59;7.00;7.00;2.75
21358;PMS7003;13506;50.852;20.632;2023-01-13T08:12:28;11.25;9.25;4.00
21358;PMS7003;13506;50.852;20.632;2023-01-13T08:15:14;9.00;8.00;3.50
21358;PMS7003;13506;50.852;20.632;2023-01-13T08:17:42;13.25;7.00;3.25
21358;PMS7003;13506;50.852;20.632;2023-01-13T08:20:10;6.25;6.25;3.25
21358;PMS7003;13506;50.852;20.632;2023-01-13T08:22:38;9.00;7.00;3.00
21358;PMS7003;13506;50.852;20.632;2023-01-13T08:25:06;11.75;9.75;4.50
21358;PMS7003;13506;50.852;20.632;2023-01-13T08:27:36;9.25;7.00;3.25
21358;PMS7003;13506;50.852;20.632;2023-01-13T08:30:05;11.00;11.00;5.00
21358;PMS7003;13506;50.852;20.632;2023-01-13T08:32:34;13.25;9.50;4.00
21358;PMS7003;13506;50.852;20.632;2023-01-13T08:35:02;9.50;7.25;2.75
21358;PMS7003;13506;50.852;20.632;2023-01-13T08:37:30;8.75;8.75;3.25
21358;PMS7003;13506;50.852;20.632;2023-01-13T08:39:58;12.25;10.00;5.00
21358;PMS7003;13506;50.852;20.632;2023-01-13T08:42:26;8.50;7.50;3.75
21358;PMS7003;13506;50.852;20.632;2023-01-13T08:44:57;10.50;10.00;4.50
21358;PMS7003;13506;50.852;20.632;2023-01-13T08:47:25;12.25;11.75;4.25
21358;PMS7003;13506;50.852;20.632;2023-01-13T08:49:54;9.75;7.75;2.75
21358;PMS7003;13506;50.852;20.632;2023-01-13T08:52:22;9.75;9.25;4.00
21358;PMS7003;13506;50.852;20.632;2023-01-13T08:54:51;11.75;7.75;3.25
21358;PMS7003;13506;50.852;20.632;2023-01-13T08:57:19;5.00;5.00;1.75
21358;PMS7003;13506;50.852;20.632;2023-01-13T08:59:47;10.50;6.50;3.50
21358;PMS7003;13506;50.852;20.632;2023-01-13T09:02:16;10.00;9.25;3.00
21358;PMS7003;13506;50.852;20.632;2023-01-13T09:04:47;9.75;8.75;4.00
21358;PMS7003;13506;50.852;20.632;2023-01-13T09:07:15;8.25;8.00;4.00
21358;PMS7003;13506;50.852;20.632;2023-01-13T09:09:44;8.75;6.75;4.00
21358;PMS7003;13506;50.852;20.632;2023-01-13T09:12:12;8.50;8.00;2.75
21358;PMS7003;13506;50.852;20.632;2023-01-13T09:15:00;11.50;7.25;3.00
21358;PMS7003;13506;50.852;20.632;2023-01-13T09:17:32;7.75;7.75;3.25
21358;PMS7003;13506;50.852;20.632;2023-01-13T09:19:59;9.00;9.00;3.75
21358;PMS7003;13506;50.852;20.632;2023-01-13T09:22:27;6.00;5.00;2.00
21358;PMS7003;13506;50.852;20.632;2023-01-13T09:24:55;7.75;7.25;2.75
21358;PMS7003;13506;50.852;20.632;2023-01-13T09:27:24;10.25;8.75;4.00
21358;PMS7003;13506;50.852;20.632;2023-01-13T09:29:52;8.50;8.25;4.50
21358;PMS7003;13506;50.852;20.632;2023-01-13T09:32:20;7.75;6.00;2.00
21358;PMS7003;13506;50.852;20.632;2023-01-13T09:34:49;9.00;7.00;2.50
21358;PMS7003;13506;50.852;20.632;2023-01-13T09:37:25;11.25;9.50;4.75
21358;PMS7003;13506;50.852;20.632;2023-01-13T09:39:54;11.00;9.50;4.00
21358;PMS7003;13506;50.852;20.632;2023-01-13T09:42:31;11.00;11.00;6.50
21358;PMS7003;13506;50.852;20.632;2023-01-13T09:45:26;11.50;8.50;3.00
21358;PMS7003;13506;50.852;20.632;2023-01-13T09:48:01;12.50;9.25;4.25
21358;PMS7003;13506;50.852;20.632;2023-01-13T09:50:43;9.00;9.00;5.00
21358;PMS7003;13506;50.852;20.632;2023-01-13T09:53:24;11.50;9.25;4.50
21358;PMS7003;13506;50.852;20.632;2023-01-13T09:55:56;8.50;8.50;4.25
21358;PMS7003;13506;50.852;20.632;2023-01-13T09:58:24;12.75;12.00;5.75
21358;PMS7003;13506;50.852;20.632;2023-01-13T10:01:02;8.25;8.25;4.25
21358;PMS7003;13506;50.852;20.632;2023-01-13T10:03:42;13.00;11.50;5.00
21358;PMS7003;13506;50.852;20.632;2023-01-13T10:06:12;14.50;11.00;4.75
21358;PMS7003;13506;50.852;20.632;2023-01-13T10:08:46;12.25;12.00;5.00
21358;PMS7003;13506;50.852;20.632;2023-01-13T10:11:16;12.00;10.25;4.00
21358;PMS7003;13506;50.852;20.632;2023-01-13T10:14:09;14.75;12.00;5.25
21358;PMS7003;13506;50.852;20.632;2023-01-13T10:16:43;11.25;11.25;5.50
21358;PMS7003;13506;50.852;20.632;2023-01-13T10:19:19;8.75;8.25;4.00
21358;PMS7003;13506;50.852;20.632;2023-01-13T10:25:10;9.75;8.50;4.00
21358;PMS7003;13506;50.852;20.632;2023-01-13T10:27:51;11.25;9.75;4.25
21358;PMS7003;13506;50.852;20.632;2023-01-13T10:30:22;15.00;11.50;5.00
21358;PMS7003;13506;50.852;20.632;2023-01-13T10:32:57;14.75;10.00;6.50
21358;PMS7003;13506;50.852;20.632;2023-01-13T10:38:27;10.00;9.00;4.75
21358;PMS7003;13506;50.852;20.632;2023-01-13T10:41:03;12.25;9.00;5.00
21358;PMS7003;13506;50.852;20.632;2023-01-13T10:43:42;12.00;10.50;4.50
21358;PMS7003;13506;50.852;20.632;2023-01-13T10:46:22;8.75;8.00;4.75
21358;PMS7003;13506;50.852;20.632;2023-01-13T10:48:51;13.00;10.25;4.50
21358;PMS7003;13506;50.852;20.632;2023-01-13T10:51:22;11.50;8.25;4.25
21358;PMS7003;13506;50.852;20.632;2023-01-13T10:53:54;11.00;10.75;5.00
21358;PMS7003;13506;50.852;20.632;2023-01-13T10:56:27;12.25;11.25;7.00
21358;PMS7003;13506;50.852;20.632;2023-01-13T11:01:54;13.00;11.50;4.25
21358;PMS7003;13506;50.852;20.632;2023-01-13T11:04:27;16.50;14.75;7.00
21358;PMS7003;13506;50.852;20.632;2023-01-13T11:06:58;11.00;10.00;5.00
21358;PMS7003;13506;50.852;20.632;2023-01-13T11:09:30;18.25;14.50;5.50
21358;PMS7003;13506;50.852;20.632;2023-01-13T11:11:58;11.75;10.50;5.00
21358;PMS7003;13506;50.852;20.632;2023-01-13T11:14:30;12.75;11.50;5.00
21358;PMS7003;13506;50.852;20.632;2023-01-13T11:17:13;16.50;12.00;6.00
21358;PMS7003;13506;50.852;20.632;2023-01-13T11:19:57;15.00;11.00;5.50
21358;PMS7003;13506;50.852;20.632;2023-01-13T11:22:38;12.75;11.75;5.00
21358;PMS7003;13506;50.852;20.632;2023-01-13T11:25:14;11.00;11.00;7.00
21358;PMS7003;13506;50.852;20.632;2023-01-13T11:27:49;17.50;14.50;8.00
21358;PMS7003;13506;50.852;20.632;2023-01-13T11:30:28;14.25;12.50;5.50
21358;PMS7003;13506;50.852;20.632;2023-01-13T11:33:06;15.75;12.75;7.25
21358;PMS7003;13506;50.852;20.632;2023-01-13T11:35:56;13.75;13.75;7.00
21358;PMS7003;13506;50.852;20.632;2023-01-13T11:38:36;13.50;12.75;7.25
21358;PMS7003;13506;50.852;20.632;2023-01-13T11:41:17;10.25;9.50;4.50
21358;PMS7003;13506;50.852;20.632;2023-01-13T11:43:55;14.25;12.25;7.00
21358;PMS7003;13506;50.852;20.632;2023-01-13T11:46:35;17.00;16.00;10.75
21358;PMS7003;13506;50.852;20.632;2023-01-13T11:49:04;13.75;13.25;6.75
21358;PMS7003;13506;50.852;20.632;2023-01-13T11:51:33;12.00;12.00;8.00
21358;PMS7003;13506;50.852;20.632;2023-01-13T11:54:16;13.75;13.50;8.00
21358;PMS7003;13506;50.852;20.632;2023-01-13T11:57:20;15.25;12.75;8.00
21358;PMS7003;13506;50.852;20.632;2023-01-13T12:00:20;11.75;11.00;5.00
21358;PMS7003;13506;50.852;20.632;2023-01-13T12:03:25;15.75;14.00;6.50
21358;PMS7003;13506;50.852;20.632;2023-01-13T12:06:08;11.50;10.50;5.00
21358;PMS7003;13506;50.852;20.632;2023-01-13T12:12:09;13.75;12.25;5.50
21358;PMS7003;13506;50.852;20.632;2023-01-13T12:15:05;13.25;11.00;5.00
21358;PMS7003;13506;50.852;20.632;2023-01-13T12:18:06;11.75;10.75;5.00
21358;PMS7003;13506;50.852;20.632;2023-01-13T12:21:05;20.25;18.00;8.00
21358;PMS7003;13506;50.852;20.632;2023-01-13T12:23:47;14.25;11.50;7.25
21358;PMS7003;13506;50.852;20.632;2023-01-13T12:26:27;14.00;12.00;7.00
21358;PMS7003;13506;50.852;20.632;2023-01-13T12:29:01;14.00;11.75;7.25
21358;PMS7003;13506;50.852;20.632;2023-01-13T12:31:35;11.75;10.25;5.00
21358;PMS7003;13506;50.852;20.632;2023-01-13T12:37:04;11.00;10.25;7.00
21358;PMS7003;13506;50.852;20.632;2023-01-13T12:39:45;15.00;14.50;8.75
21358;PMS7003;13506;50.852;20.632;2023-01-13T12:42:44;12.25;10.75;6.00
21358;PMS7003;13506;50.852;20.632;2023-01-13T12:45:37;12.25;11.50;7.25
21358;PMS7003;13506;50.852;20.632;2023-01-13T12:48:19;12.75;12.75;6.50
21358;PMS7003;13506;50.852;20.632;2023-01-13T12:51:30;17.25;14.75;7.00
21358;PMS7003;13506;50.852;20.632;2023-01-13T12:54:00;14.25;13.50;7.50
21358;PMS7003;13506;50.852;20.632;2023-01-13T12:56:40;11.00;11.00;6.50
21358;PMS7003;13506;50.852;20.632;2023-01-13T12:59:32;14.00;12.00;6.50
21358;PMS7003;13506;50.852;20.632;2023-01-13T13:04:55;14.50;14.50;7.00
21358;PMS7003;13506;50.852;20.632;2023-01-13T13:07:30;11.50;11.50;7.00
21358;PMS7003;13506;50.852;20.632;2023-01-13T13:10:11;16.25;15.00;7.75
21358;PMS7003;13506;50.852;20.632;2023-01-13T13:12:52;16.25;12.50;7.75
21358;PMS7003;13506;50.852;20.632;2023-01-13T13:15:43;12.25;11.50;5.00
21358;PMS7003;13506;50.852;20.632;2023-01-13T13:18:20;14.75;13.75;8.00
21358;PMS7003;13506;50.852;20.632;2023-01-13T13:20:54;17.50;15.25;8.00
21358;PMS7003;13506;50.852;20.632;2023-01-13T13:23:36;15.75;14.50;7.50
21358;PMS7003;13506;50.852;20.632;2023-01-13T13:35:32;13.50;12.25;8.00
21358;PMS7003;13506;50.852;20.632;2023-01-13T13:38:19;17.00;15.25;8.00
21358;PMS7003;13506;50.852;20.632;2023-01-13T13:41:27;13.50;12.50;7.75
21358;PMS7003;13506;50.852;20.632;2023-01-13T13:44:14;14.75;13.50;7.75
21358;PMS7003;13506;50.852;20.632;2023-01-13T13:47:01;15.25;13.25;7.25
21358;PMS7003;13506;50.852;20.632;2023-01-13T13:49:35;11.00;11.00;7.00
21358;PMS7003;13506;50.852;20.632;2023-01-13T13:52:13;13.25;12.75;6.50
21358;PMS7003;13506;50.852;20.632;2023-01-13T13:54:46;19.25;17.00;8.75
21358;PMS7003;13506;50.852;20.632;2023-01-13T13:57:17;13.75;11.00;4.75
21358;PMS7003;13506;50.852;20.632;2023-01-13T13:59:47;14.00;11.00;5.00
21358;PMS7003;13506;50.852;20.632;2023-01-13T14:02:22;13.75;12.75;5.50
21358;PMS7003;13506;50.852;20.632;2023-01-13T14:05:15;16.50;12.25;6.50
21358;PMS7003;13506;50.852;20.632;2023-01-13T14:07:47;17.00;14.50;7.50
21358;PMS7003;13506;50.852;20.632;2023-01-13T14:10:18;15.00;12.25;6.00
21358;PMS7003;13506;50.852;20.632;2023-01-13T14:12:49;17.25;14.75;9.75
21358;PMS7003;13506;50.852;20.632;2023-01-13T14:15:25;11.00;11.00;4.00
21358;PMS7003;13506;50.852;20.632;2023-01-13T14:17:58;11.00;11.00;5.50
21358;PMS7003;13506;50.852;20.632;2023-01-13T14:20:28;14.75;10.50;5.00
21358;PMS7003;13506;50.852;20.632;2023-01-13T14:23:00;11.00;11.00;7.00
21358;PMS7003;13506;50.852;20.632;2023-01-13T14:25:31;13.00;13.00;7.00
21358;PMS7003;13506;50.852;20.632;2023-01-13T14:28:08;11.75;11.75;7.00
21358;PMS7003;13506;50.852;20.632;2023-01-13T14:30:48;14.75;14.00;8.00
21358;PMS7003;13506;50.852;20.632;2023-01-13T14:33:17;16.00;14.25;7.25
21358;PMS7003;13506;50.852;20.632;2023-01-13T14:36:04;11.00;10.75;5.50
21358;PMS7003;13506;50.852;20.632;2023-01-13T14:38:46;16.75;12.00;7.25
21358;PMS7003;13506;50.852;20.632;2023-01-13T14:41:25;15.25;11.00;5.00
21358;PMS7003;13506;50.852;20.632;2023-01-13T14:43:56;15.00;13.50;7.25
21358;PMS7003;13506;50.852;20.632;2023-01-13T14:46:35;14.75;13.75;6.50
21358;PMS7003;13506;50.852;20.632;2023-01-13T14:49:04;16.50;12.75;7.00
21358;PMS7003;13506;50.852;20.632;2023-01-13T14:51:42;17.00;13.75;7.00
21358;PMS7003;13506;50.852;20.632;2023-01-13T14:57:15;13.50;12.50;5.00
21358;PMS7003;13506;50.852;20.632;2023-01-13T14:59:55;15.75;15.75;7.75
21358;PMS7003;13506;50.852;20.632;2023-01-13T15:02:37;13.50;11.25;7.00
21358;PMS7003;13506;50.852;20.632;2023-01-13T15:05:29;22.50;19.25;12.25
21358;PMS7003;13506;50.852;20.632;2023-01-13T15:08:21;22.00;19.25;10.00
21358;PMS7003;13506;50.852;20.632;2023-01-13T15:10:59;22.00;16.50;9.00
21358;PMS7003;13506;50.852;20.632;2023-01-13T15:13:32;18.60;15.20;10.40